Time;durP1;ratioP1;P1;durP2;ratioP2;P2;SDS_P1;SDS_P2;PMS_P1;PMS_P2;Temp;Humidity;BMP_temperature;BMP_pressure;BME280_temperature;BME280_humidity;BME280_pressure;Samples;Min_cycle;Max_cycle;Signal;HPM_P1;HPM_P2
2022/07/31 00:00:07;;;;;;;1.83;1.27;;;;;;;23.14;99.79;100737.56;5050382;28;20029;-81
2022/07/31 00:02:32;;;;;;;1.73;1.20;;;;;;;23.12;99.35;100736.91;5048861;28;20047;-80
2022/07/31 00:04:58;;;;;;;4.10;1.73;;;;;;;22.92;100.00;100726.63;5095590;27;20022;-80
2022/07/31 00:07:23;;;;;;;3.83;2.03;;;;;;;23.04;100.00;100739.63;5099788;27;20062;-80
2022/07/31 00:09:48;;;;;;;2.33;1.80;;;;;;;23.07;100.00;100744.66;5050613;28;20057;-81
2022/07/31 00:12:14;;;;;;;3.05;1.80;;;;;;;22.82;100.00;100731.38;5049440;27;20412;-81
2022/07/31 00:14:40;;;;;;;4.57;1.70;;;;;;;23.01;100.00;100734.63;5049202;28;20424;-81
2022/07/31 00:17:05;;;;;;;4.38;2.30;;;;;;;22.67;100.00;100733.13;5050194;28;20033;-81
2022/07/31 00:19:31;;;;;;;1.95;1.30;;;;;;;22.92;100.00;100731.16;5058269;27;20031;-80
2022/07/31 00:21:57;;;;;;;2.97;2.15;;;;;;;22.73;100.00;100732.44;5049379;28;20028;-80
2022/07/31 00:24:23;;;;;;;3.88;1.50;;;;;;;22.81;100.00;100728.88;5050040;28;20390;-79
2022/07/31 00:26:48;;;;;;;2.80;1.40;;;;;;;23.03;100.00;100732.63;5049869;28;20028;-79
2022/07/31 00:29:13;;;;;;;5.57;1.73;;;;;;;23.10;100.00;100726.34;5049521;28;20490;-79
2022/07/31 00:31:39;;;;;;;1.60;1.50;;;;;;;22.78;100.00;100727.38;5049660;28;20057;-79
2022/07/31 00:34:04;;;;;;;3.72;1.95;;;;;;;22.66;100.00;100726.94;5077743;27;20459;-79
2022/07/31 00:36:29;;;;;;;2.03;1.70;;;;;;;22.88;100.00;100729.84;5147614;27;20034;-79
2022/07/31 00:38:55;;;;;;;1.92;1.55;;;;;;;22.78;100.00;100730.06;5049531;28;20025;-80
2022/07/31 00:41:20;;;;;;;2.53;1.48;;;;;;;22.96;100.00;100738.63;5049298;28;20033;-79
2022/07/31 00:43:45;;;;;;;1.65;1.45;;;;;;;23.04;100.00;100739.63;5049584;28;20053;-80
2022/07/31 00:46:11;;;;;;;2.15;1.40;;;;;;;23.03;100.00;100733.47;5049276;28;20021;-80
2022/07/31 00:48:36;;;;;;;2.33;1.48;;;;;;;22.69;100.00;100723.94;5067502;27;20022;-80
2022/07/31 00:51:02;;;;;;;2.33;1.60;;;;;;;22.55;100.00;100721.97;5154553;27;20391;-80
2022/07/31 00:53:27;;;;;;;1.75;1.30;;;;;;;22.80;100.00;100721.88;5052131;27;20074;-80
2022/07/31 00:55:53;;;;;;;2.38;1.38;;;;;;;22.54;100.00;100717.66;5049488;28;20057;-80
2022/07/31 00:58:19;;;;;;;1.73;1.20;;;;;;;22.45;100.00;100724.88;5049294;28;20029;-80
2022/07/31 01:00:44;;;;;;;1.63;1.23;;;;;;;22.91;100.00;100719.63;5049194;28;20079;-80
2022/07/31 01:03:09;;;;;;;4.70;1.20;;;;;;;22.94;100.00;100719.25;5059345;27;20685;-80
2022/07/31 01:05:35;;;;;;;2.10;1.50;;;;;;;22.96;100.00;100711.03;5059895;27;20029;-80
2022/07/31 01:08:00;;;;;;;2.70;1.33;;;;;;;22.75;100.00;100719.72;5048688;28;20101;-80
2022/07/31 01:10:42;;;;;;;2.58;1.25;;;;;;;23.06;100.00;100711.66;5049457;28;20107;-80
2022/07/31 01:13:15;;;;;;;2.78;1.20;;;;;;;23.16;100.00;100706.06;5048964;28;20029;-80
2022/07/31 01:15:42;;;;;;;4.10;1.30;;;;;;;22.72;100.00;100714.72;5029445;28;20030;-80
2022/07/31 01:18:10;;;;;;;1.45;1.23;;;;;;;22.99;100.00;100707.19;5060449;27;20046;-80
2022/07/31 01:20:36;;;;;;;1.70;1.40;;;;;;;22.98;100.00;100709.00;5068012;27;20027;-80
2022/07/31 01:23:36;;;;;;;1.85;1.10;;;;;;;23.00;100.00;100700.81;5070925;27;20162;-80
2022/07/31 01:26:01;;;;;;;1.90;1.10;;;;;;;22.86;100.00;100694.38;5047851;28;20025;-80
2022/07/31 01:28:35;;;;;;;3.95;1.30;;;;;;;23.02;100.00;100688.06;5047558;28;20073;-80
2022/07/31 01:31:17;;;;;;;1.70;1.25;;;;;;;23.13;100.00;100685.00;5048616;28;20378;-80
2022/07/31 01:33:49;;;;;;;1.20;1.10;;;;;;;22.83;100.00;100684.88;5070720;27;20084;-80
2022/07/31 01:36:20;;;;;;;1.30;1.20;;;;;;;23.00;100.00;100684.75;5048204;28;20044;-80
2022/07/31 01:38:50;;;;;;;1.67;1.58;;;;;;;22.97;100.00;100683.25;5048922;28;20030;-80
2022/07/31 01:41:20;;;;;;;2.38;1.30;;;;;;;23.24;100.00;100681.88;5048565;28;20509;-80
2022/07/31 01:43:48;;;;;;;3.53;1.40;;;;;;;22.86;100.00;100679.13;5048512;28;20470;-81
2022/07/31 01:46:17;;;;;;;1.95;1.20;;;;;;;23.14;100.00;100679.50;5048244;28;20021;-81
2022/07/31 01:48:44;;;;;;;2.22;1.25;;;;;;;23.01;100.00;100683.75;5097408;27;20254;-81
2022/07/31 01:51:10;;;;;;;1.40;1.10;;;;;;;23.08;100.00;100676.66;5150904;27;20057;-80
2022/07/31 01:53:37;;;;;;;1.35;1.25;;;;;;;23.25;100.00;100688.94;5027734;28;20021;-81
2022/07/31 01:56:04;;;;;;;2.30;1.20;;;;;;;22.89;100.00;100675.28;5028951;28;20387;-80
2022/07/31 01:58:39;;;;;;;1.30;1.13;;;;;;;23.19;100.00;100668.22;5048262;28;20036;-80
2022/07/31 02:01:08;;;;;;;3.55;1.50;;;;;;;22.91;100.00;100674.09;5047395;28;20061;-81
2022/07/31 02:03:35;;;;;;;1.60;1.50;;;;;;;22.65;100.00;100671.78;5105158;27;20034;-81
2022/07/31 02:06:01;;;;;;;2.55;1.60;;;;;;;23.15;100.00;100662.38;5153419;27;20015;-81
2022/07/31 02:08:28;;;;;;;10.43;2.85;;;;;;;23.15;100.00;100667.75;5052209;27;20064;-80
2022/07/31 02:10:56;;;;;;;1.77;1.42;;;;;;;23.19;100.00;100667.41;5048188;28;20029;-80
2022/07/31 02:13:23;;;;;;;3.35;1.52;;;;;;;23.04;100.00;100670.84;5048838;28;20021;-81
2022/07/31 02:15:50;;;;;;;1.58;1.38;;;;;;;23.13;100.00;100674.31;5046955;28;20601;-81
2022/07/31 02:18:18;;;;;;;2.50;1.42;;;;;;;23.01;100.00;100660.47;5047449;28;20037;-81
2022/07/31 02:20:45;;;;;;;5.00;1.65;;;;;;;23.02;100.00;100656.78;5047597;28;20025;-80
2022/07/31 02:23:10;;;;;;;2.28;1.45;;;;;;;23.00;100.00;100660.66;5047987;28;20125;-80
2022/07/31 02:25:38;;;;;;;3.78;2.00;;;;;;;22.87;100.00;100656.72;5048697;28;20490;-80
2022/07/31 02:28:08;;;;;;;1.88;1.65;;;;;;;23.00;100.00;100660.66;5048061;28;20052;-80
2022/07/31 02:30:37;;;;;;;3.20;2.00;;;;;;;22.77;100.00;100664.16;5048510;28;20029;-80
2022/07/31 02:33:05;;;;;;;2.65;1.63;;;;;;;22.79;100.00;100651.44;5046997;28;20085;-80
2022/07/31 02:35:30;;;;;;;2.45;1.60;;;;;;;23.04;100.00;100656.63;5098218;27;20044;-80
2022/07/31 02:37:57;;;;;;;3.85;2.22;;;;;;;22.81;100.00;100640.53;5137468;27;20030;-80
2022/07/31 02:40:24;;;;;;;2.70;1.75;;;;;;;23.05;100.00;100644.91;5051538;28;20106;-80
2022/07/31 02:42:51;;;;;;;3.83;2.03;;;;;;;23.15;100.00;100653.53;5051685;28;20025;-80
2022/07/31 02:45:17;;;;;;;3.40;2.22;;;;;;;23.27;99.52;100643.22;5051674;28;20107;-80
2022/07/31 02:47:43;;;;;;;2.63;2.00;;;;;;;23.14;99.78;100628.59;5090446;27;20075;-80
2022/07/31 02:50:09;;;;;;;3.83;2.15;;;;;;;23.01;100.00;100627.50;5157022;27;20414;-81
2022/07/31 02:52:35;;;;;;;2.15;1.83;;;;;;;23.06;100.00;100625.97;5092484;27;20068;-80
2022/07/31 02:55:02;;;;;;;3.30;1.77;;;;;;;23.13;100.00;100626.09;5051533;28;20061;-80
2022/07/31 02:57:28;;;;;;;4.35;2.13;;;;;;;23.22;99.14;100619.63;5051223;28;20074;-80
2022/07/31 02:59:53;;;;;;;4.47;1.80;;;;;;;23.08;100.00;100631.97;5051390;28;20375;-80
2022/07/31 03:02:18;;;;;;;4.75;3.15;;;;;;;22.83;100.00;100615.25;5082356;27;20038;-80
2022/07/31 03:04:44;;;;;;;4.78;2.00;;;;;;;23.07;99.53;100621.47;5096869;27;20085;-81
2022/07/31 03:07:10;;;;;;;3.25;2.20;;;;;;;22.91;99.56;100617.88;5051344;27;20387;-81
2022/07/31 03:09:35;;;;;;;5.65;2.65;;;;;;;22.74;100.00;100616.31;5064246;27;20044;-80
2022/07/31 03:12:01;;;;;;;3.72;2.33;;;;;;;22.56;100.00;100612.09;5115883;27;20451;-80
2022/07/31 03:14:28;;;;;;;3.15;2.20;;;;;;;22.78;100.00;100615.78;5051024;28;20081;-81
2022/07/31 03:16:54;;;;;;;4.45;2.10;;;;;;;23.04;98.89;100608.41;5049656;28;20082;-81
2022/07/31 03:19:21;;;;;;;5.00;2.67;;;;;;;22.61;100.00;100619.63;5051241;28;20018;-80
2022/07/31 03:21:48;;;;;;;5.38;2.60;;;;;;;22.58;100.00;100612.75;5050599;28;20115;-80
2022/07/31 03:24:14;;;;;;;5.78;2.67;;;;;;;22.58;100.00;100615.44;5039559;27;20041;-81
2022/07/31 03:26:39;;;;;;;5.93;2.95;;;;;;;22.62;100.00;100607.06;5053566;27;20120;-80
2022/07/31 03:29:04;;;;;;;5.72;2.58;;;;;;;22.74;100.00;100610.97;5050490;28;20382;-80
2022/07/31 03:31:30;;;;;;;4.50;2.40;;;;;;;22.94;99.80;100603.28;5049327;28;20025;-80
2022/07/31 03:33:55;;;;;;;4.50;2.70;;;;;;;22.95;99.32;100602.28;5051020;28;20083;-80
2022/07/31 03:36:21;;;;;;;5.63;2.97;;;;;;;22.87;99.74;100605.84;5050455;28;20027;-79
2022/07/31 03:38:47;;;;;;;5.47;2.83;;;;;;;22.77;100.00;100605.28;5050475;28;20033;-79
2022/07/31 03:41:13;;;;;;;4.97;2.78;;;;;;;22.70;100.00;100604.31;5049492;28;20047;-80
2022/07/31 03:43:40;;;;;;;7.82;3.25;;;;;;;22.88;99.98;100604.84;5050827;28;20507;-80
2022/07/31 03:46:06;;;;;;;3.85;2.83;;;;;;;22.93;99.67;100613.16;5049238;28;20051;-79
2022/07/31 03:48:32;;;;;;;6.15;2.65;;;;;;;22.95;99.47;100600.44;5049785;28;20431;-79
2022/07/31 03:50:58;;;;;;;6.18;2.17;;;;;;;22.90;99.82;100605.47;5050682;28;20029;-80
2022/07/31 03:53:25;;;;;;;7.65;2.65;;;;;;;22.95;99.65;100597.75;5050924;28;20435;-79
2022/07/31 03:55:52;;;;;;;7.65;3.63;;;;;;;22.63;100.00;100582.81;5061782;27;20082;-80
2022/07/31 03:58:18;;;;;;;5.28;2.70;;;;;;;22.78;100.00;100577.47;5061131;27;20101;-80
2022/07/31 04:00:44;;;;;;;4.30;2.65;;;;;;;22.62;100.00;100585.66;5050474;28;20029;-80
2022/07/31 04:03:11;;;;;;;5.88;2.92;;;;;;;22.43;100.00;100577.06;5050462;28;20029;-80
2022/07/31 04:05:38;;;;;;;7.63;2.97;;;;;;;22.82;100.00;100586.00;5050316;28;20033;-80
2022/07/31 04:08:04;;;;;;;6.72;3.08;;;;;;;22.82;100.00;100581.47;5049747;28;20021;-80
2022/07/31 04:10:30;;;;;;;5.57;2.78;;;;;;;22.76;100.00;100587.53;5061544;27;20055;-80
2022/07/31 04:12:55;;;;;;;7.05;3.03;;;;;;;22.49;100.00;100594.25;5076454;27;20533;-79
2022/07/31 04:15:21;;;;;;;4.68;2.92;;;;;;;22.51;100.00;100597.59;5050248;27;20037;-80
2022/07/31 04:17:46;;;;;;;4.47;2.58;;;;;;;22.61;100.00;100592.84;5050218;28;20420;-80
2022/07/31 04:20:11;;;;;;;6.22;3.13;;;;;;;22.42;100.00;100607.50;5048658;28;20098;-80
2022/07/31 04:22:37;;;;;;;6.10;2.72;;;;;;;22.45;100.00;100595.63;5050242;28;20052;-80
2022/07/31 04:25:03;;;;;;;7.78;3.15;;;;;;;22.74;100.00;100605.63;5049782;28;20025;-80
2022/07/31 04:27:29;;;;;;;6.35;3.40;;;;;;;22.70;100.00;100604.31;5050459;28;20025;-80
2022/07/31 04:29:55;;;;;;;3.95;2.55;;;;;;;22.44;100.00;100607.34;5069485;27;20074;-80
2022/07/31 04:32:20;;;;;;;4.82;2.65;;;;;;;22.68;100.00;100606.34;5049681;28;20032;-80
2022/07/31 04:34:46;;;;;;;8.40;3.17;;;;;;;22.32;100.00;100607.75;5050187;28;20024;-80
2022/07/31 04:37:11;;;;;;;4.60;2.95;;;;;;;22.48;100.00;100614.84;5049460;28;20025;-80
2022/07/31 04:39:37;;;;;;;6.13;3.40;;;;;;;22.31;100.00;100606.06;5049274;28;20301;-80
2022/07/31 04:42:03;;;;;;;7.97;3.40;;;;;;;22.35;100.00;100609.22;5049560;28;20108;-80
2022/07/31 04:44:28;;;;;;;5.03;2.80;;;;;;;22.54;100.00;100602.59;5066415;27;20038;-80
2022/07/31 04:47:00;;;;;;;4.80;3.15;;;;;;;22.56;100.00;100612.09;5049401;28;20040;-80
2022/07/31 04:49:26;;;;;;;4.30;2.95;;;;;;;22.65;100.00;100612.03;5049538;28;20017;-81
2022/07/31 04:51:51;;;;;;;7.22;3.17;;;;;;;22.64;100.00;100611.22;5049826;28;20035;-80
2022/07/31 04:54:17;;;;;;;5.28;3.22;;;;;;;22.41;100.00;100618.38;5050211;28;20077;-80
2022/07/31 04:56:42;;;;;;;6.07;3.22;;;;;;;22.50;100.00;100617.34;5049621;28;20031;-80
2022/07/31 04:59:11;;;;;;;10.95;4.50;;;;;;;21.84;100.00;100608.75;5047110;28;20021;-80
2022/07/31 05:01:37;;;;;;;6.78;3.78;;;;;;;22.21;100.00;100618.78;5049509;28;20029;-80
2022/07/31 05:04:03;;;;;;;8.45;3.65;;;;;;;22.25;100.00;100617.47;5049296;28;20059;-80
2022/07/31 05:06:40;;;;;;;6.57;3.92;;;;;;;22.25;100.00;100612.13;5049162;28;20028;-80
2022/07/31 05:09:07;;;;;;;9.40;3.78;;;;;;;21.73;100.00;100608.13;5050225;28;20025;-80
2022/07/31 05:11:33;;;;;;;6.88;3.97;;;;;;;21.66;100.00;100607.16;5049614;28;20033;-79
2022/07/31 05:14:01;;;;;;;8.80;4.35;;;;;;;21.88;100.00;100602.06;5048534;28;20420;-81
2022/07/31 05:16:28;;;;;;;6.55;3.95;;;;;;;21.93;100.00;100605.06;5049294;28;20041;-80
2022/07/31 05:18:53;;;;;;;15.60;5.00;;;;;;;21.91;100.00;100607.09;5049231;28;20029;-80
2022/07/31 05:21:19;;;;;;;8.63;3.50;;;;;;;22.04;100.00;100610.03;5049567;28;20474;-80
2022/07/31 05:23:46;;;;;;;6.43;4.43;;;;;;;21.84;100.00;100598.94;5035828;28;20451;-80
2022/07/31 05:26:12;;;;;;;6.40;4.35;;;;;;;22.00;100.00;100608.72;5049430;28;20033;-80
2022/07/31 05:28:38;;;;;;;8.60;3.75;;;;;;;22.08;100.00;100605.19;5075251;27;20087;-80
2022/07/31 05:31:05;;;;;;;7.72;4.18;;;;;;;21.99;100.00;100602.53;5073354;27;20041;-80
2022/07/31 05:33:30;;;;;;;8.82;4.32;;;;;;;22.09;100.00;100596.97;5049272;28;20547;-80
2022/07/31 05:35:57;;;;;;;10.35;4.53;;;;;;;21.96;100.00;100602.06;5048322;28;20102;-80
2022/07/31 05:38:22;;;;;;;6.40;3.75;;;;;;;22.11;100.00;100602.13;5049367;28;20542;-80
2022/07/31 05:40:48;;;;;;;10.77;4.75;;;;;;;21.82;100.00;100594.75;5049629;28;20033;-80
2022/07/31 05:43:13;;;;;;;5.53;3.67;;;;;;;21.98;100.00;100600.03;5046212;28;20063;-80
2022/07/31 05:45:38;;;;;;;10.13;4.15;;;;;;;22.14;100.00;100599.94;5045688;28;20032;-79
2022/07/31 05:48:04;;;;;;;9.73;4.85;;;;;;;22.10;100.00;100600.50;5048810;28;20057;-80
2022/07/31 05:50:30;;;;;;;8.60;4.13;;;;;;;21.93;100.00;100602.41;5049112;28;20037;-80
2022/07/31 05:52:56;;;;;;;5.78;3.85;;;;;;;21.57;100.00;100602.84;5049056;28;20029;-80
2022/07/31 05:55:21;;;;;;;7.13;3.90;;;;;;;21.84;100.00;100603.41;5048601;28;20056;-80
2022/07/31 05:57:47;;;;;;;9.40;4.20;;;;;;;22.11;100.00;100605.63;5049643;28;20025;-80
2022/07/31 06:00:15;;;;;;;8.63;4.13;;;;;;;22.02;100.00;100601.34;5048184;28;20025;-80
2022/07/31 06:02:40;;;;;;;7.75;4.90;;;;;;;22.08;100.00;100600.66;5048921;28;20254;-80
2022/07/31 06:05:06;;;;;;;13.18;4.40;;;;;;;21.88;100.00;100604.75;5048688;28;20632;-80
2022/07/31 06:07:31;;;;;;;7.97;4.13;;;;;;;22.13;100.00;100598.28;5047396;28;20419;-80
2022/07/31 06:09:56;;;;;;;8.07;3.95;;;;;;;22.23;100.00;100602.56;5048749;28;20048;-80
2022/07/31 06:12:22;;;;;;;7.60;4.38;;;;;;;21.97;100.00;100599.19;5052139;28;20470;-80
2022/07/31 06:14:47;;;;;;;7.78;4.15;;;;;;;22.10;100.00;100598.63;5051046;28;20089;-79
2022/07/31 06:17:13;;;;;;;9.45;3.92;;;;;;;22.20;100.00;100594.94;5052064;28;20073;-79
2022/07/31 06:19:38;;;;;;;8.18;4.32;;;;;;;21.78;100.00;100599.59;5052316;28;20029;-79
2022/07/31 06:22:03;;;;;;;7.28;3.63;;;;;;;22.17;100.00;100602.25;5052018;28;20390;-79
2022/07/31 06:24:29;;;;;;;9.68;4.55;;;;;;;22.11;100.00;100597.63;5052219;28;20455;-79
2022/07/31 06:27:00;;;;;;;7.85;3.58;;;;;;;21.94;100.00;100604.06;5050521;28;20104;-79
2022/07/31 06:29:29;;;;;;;11.70;3.67;;;;;;;22.05;100.00;100601.00;5096207;27;20507;-79
2022/07/31 06:31:54;;;;;;;10.43;4.15;;;;;;;22.18;100.00;100603.13;5037928;28;20033;-79
2022/07/31 06:34:20;;;;;;;3.83;2.97;;;;;;;22.12;100.00;100607.31;5050885;28;20378;-79
2022/07/31 06:36:45;;;;;;;7.70;3.33;;;;;;;22.08;100.00;100597.16;5051444;28;20431;-79
2022/07/31 06:39:11;;;;;;;6.70;3.20;;;;;;;22.16;100.00;100597.13;5051586;28;20025;-79
2022/07/31 06:41:46;;;;;;;4.88;3.03;;;;;;;22.25;100.00;100601.41;5051270;28;20478;-79
2022/07/31 06:44:12;;;;;;;6.00;3.70;;;;;;;22.06;100.00;100601.81;5068240;27;20028;-79
2022/07/31 06:46:38;;;;;;;5.53;2.92;;;;;;;22.16;100.00;100605.97;5051689;28;20021;-79
2022/07/31 06:49:04;;;;;;;5.20;2.58;;;;;;;22.21;100.00;100599.25;5051615;28;20033;-79
2022/07/31 06:51:29;;;;;;;7.20;3.17;;;;;;;22.13;100.00;100600.13;5051580;28;20101;-80
2022/07/31 06:53:55;;;;;;;5.93;2.80;;;;;;;22.23;100.00;100597.22;5051597;28;20033;-80
2022/07/31 06:56:21;;;;;;;2.58;2.00;;;;;;;22.31;100.00;100600.72;5051526;28;20025;-80
2022/07/31 06:58:46;;;;;;;3.00;2.35;;;;;;;22.16;100.00;100597.94;5120198;27;20396;-80
2022/07/31 07:01:11;;;;;;;4.50;1.80;;;;;;;22.12;100.00;100596.63;5149909;27;20030;-80
2022/07/31 07:03:37;;;;;;;3.15;1.85;;;;;;;22.21;100.00;100604.59;5068716;27;20482;-80
2022/07/31 07:06:03;;;;;;;2.42;1.83;;;;;;;22.24;100.00;100601.59;5108426;27;20027;-80
2022/07/31 07:08:28;;;;;;;2.13;1.60;;;;;;;22.08;100.00;100605.19;5051191;27;20036;-80
2022/07/31 07:10:54;;;;;;;1.65;1.27;;;;;;;22.28;100.00;100606.44;5051294;28;20032;-80
2022/07/31 07:13:19;;;;;;;2.85;1.80;;;;;;;22.38;100.00;100611.56;5051020;28;20032;-80
2022/07/31 07:15:45;;;;;;;2.55;1.50;;;;;;;22.28;100.00;100606.44;5051174;28;20049;-79
2022/07/31 07:18:10;;;;;;;2.42;0.90;;;;;;;22.27;100.00;100609.28;5050986;28;20049;-80
2022/07/31 07:20:36;;;;;;;2.78;1.35;;;;;;;22.02;100.00;100606.72;5051032;28;20394;-79
2022/07/31 07:23:01;;;;;;;1.92;0.95;;;;;;;22.52;100.00;100604.63;5048246;27;20037;-79
2022/07/31 07:25:27;;;;;;;2.85;0.90;;;;;;;22.63;100.00;100604.22;5156096;27;20011;-79
2022/07/31 07:27:52;;;;;;;1.77;1.00;;;;;;;22.63;100.00;100603.34;5079297;27;20486;-79
2022/07/31 07:30:18;;;;;;;1.27;0.70;;;;;;;22.48;100.00;100605.97;5050577;28;20100;-79
2022/07/31 07:32:44;;;;;;;4.68;1.00;;;;;;;22.08;100.00;100614.03;5049461;28;20116;-79
2022/07/31 07:35:11;;;;;;;1.63;0.90;;;;;;;22.39;100.00;100602.50;5050784;28;20032;-79
2022/07/31 07:37:38;;;;;;;1.35;0.65;;;;;;;22.52;100.00;100608.13;5049081;28;20024;-79
2022/07/31 07:40:04;;;;;;;2.92;0.80;;;;;;;22.38;100.00;100609.72;5050061;28;20081;-79
2022/07/31 07:42:30;;;;;;;2.83;0.55;;;;;;;22.21;100.00;100605.41;5050701;28;20060;-79
2022/07/31 07:44:56;;;;;;;1.63;0.70;;;;;;;22.17;100.00;100607.59;5050190;28;20474;-79
2022/07/31 07:47:21;;;;;;;1.67;0.60;;;;;;;22.14;100.00;100615.16;5050743;28;20025;-79
2022/07/31 07:49:46;;;;;;;1.05;0.60;;;;;;;22.20;100.00;100609.13;5050738;28;20102;-79
2022/07/31 07:52:12;;;;;;;3.45;0.50;;;;;;;22.18;100.00;100611.97;5050274;28;20025;-80
2022/07/31 07:54:38;;;;;;;1.15;0.45;;;;;;;22.12;100.00;100618.00;5108288;27;20025;-79
2022/07/31 07:57:03;;;;;;;0.95;0.30;;;;;;;22.07;100.00;100627.56;5041176;28;20028;-80
2022/07/31 07:59:28;;;;;;;1.45;0.10;;;;;;;22.48;100.00;100616.69;5046208;28;20513;-79
2022/07/31 08:01:54;;;;;;;1.35;0.30;;;;;;;21.91;100.00;100617.78;5049648;28;20539;-80
2022/07/31 08:04:19;;;;;;;1.33;0.20;;;;;;;22.34;100.00;100620.94;5050286;28;20025;-80
2022/07/31 08:06:46;;;;;;;1.45;0.38;;;;;;;22.57;100.00;100629.84;5053702;28;20041;-79
2022/07/31 08:09:12;;;;;;;0.75;0.10;;;;;;;22.61;100.00;100616.94;5050612;28;20045;-80
2022/07/31 08:11:37;;;;;;;2.30;0.20;;;;;;;22.72;100.00;100629.88;5048623;28;20112;-79
2022/07/31 08:14:02;;;;;;;1.23;0.30;;;;;;;22.60;100.00;100633.16;5050023;28;20021;-80
2022/07/31 08:16:28;;;;;;;0.30;0.10;;;;;;;22.81;100.00;100632.50;5065942;27;20017;-78
2022/07/31 08:18:53;;;;;;;2.08;0.40;;;;;;;22.87;100.00;100627.28;5048249;28;20444;-78
2022/07/31 08:21:19;;;;;;;;;;;;;;;22.65;100.00;100626.28;5059061;28;20032;-79
2022/07/31 08:23:44;;;;;;;1.17;0.17;;;;;;;22.65;100.00;100623.59;5065933;28;20188;-84
2022/07/31 08:26:09;;;;;;;3.90;0.75;;;;;;;22.64;100.00;100623.78;5056901;27;20562;-78
2022/07/31 08:28:36;;;;;;;2.55;0.32;;;;;;;22.26;100.00;100629.03;5048908;28;20052;-79
2022/07/31 08:31:01;;;;;;;0.85;0.40;;;;;;;22.50;100.00;100615.50;5048667;27;20108;-79
2022/07/31 08:33:27;;;;;;;1.10;0.10;;;;;;;22.25;100.00;100619.31;5056750;27;20105;-80
2022/07/31 08:35:52;;;;;;;2.08;0.20;;;;;;;22.55;100.00;100621.16;5046265;28;20025;-80
2022/07/31 08:38:18;;;;;;;0.68;0.15;;;;;;;22.63;100.00;100619.41;5130661;27;20034;-79
2022/07/31 08:40:45;;;;;;;2.45;0.43;;;;;;;22.63;100.00;100617.59;5149601;27;20099;-79
2022/07/31 08:43:11;;;;;;;0.45;0.10;;;;;;;22.90;100.00;100621.53;5089391;27;20034;-79
2022/07/31 08:45:39;;;;;;;1.45;0.10;;;;;;;22.67;100.00;100616.22;5043352;28;20086;-79
2022/07/31 08:48:07;;;;;;;0.10;0.00;;;;;;;22.80;100.00;100610.25;5042528;28;20033;-78
2022/07/31 08:50:36;;;;;;;0.93;0.10;;;;;;;22.44;100.00;100612.69;5043089;28;20045;-79
2022/07/31 08:53:03;;;;;;;1.90;0.20;;;;;;;22.51;100.00;100611.81;5092325;27;20024;-78
2022/07/31 08:55:30;;;;;;;0.40;0.10;;;;;;;22.55;100.00;100618.47;5044514;28;20033;-79
2022/07/31 08:57:56;;;;;;;1.02;0.32;;;;;;;22.44;100.00;100621.56;5043328;28;20028;-78
2022/07/31 09:00:21;;;;;;;4.15;0.43;;;;;;;22.35;100.00;100623.44;5047406;27;20025;-79
2022/07/31 09:02:47;;;;;;;0.90;0.10;;;;;;;22.40;100.00;100616.75;5042823;28;20033;-79
2022/07/31 09:05:13;;;;;;;1.42;0.43;;;;;;;22.61;100.00;100621.44;5044237;28;20474;-79
2022/07/31 09:07:39;;;;;;;2.72;0.30;;;;;;;22.51;100.00;100610.97;5044818;28;20390;-79
2022/07/31 09:10:27;;;;;;;1.55;0.20;;;;;;;23.00;100.00;100625.84;5043803;28;20029;-79
2022/07/31 09:12:54;;;;;;;0.85;0.20;;;;;;;23.44;100.00;100617.06;5048363;27;20471;-78
2022/07/31 09:15:24;;;;;;;2.00;0.15;;;;;;;23.17;100.00;100622.03;5042515;28;20644;-78
2022/07/31 09:17:50;;;;;;;1.93;0.30;;;;;;;23.35;100.00;100613.66;5042835;28;20060;-78
2022/07/31 09:20:19;;;;;;;1.45;0.30;;;;;;;23.86;100.00;100621.84;5043435;28;20071;-79
2022/07/31 09:22:44;;;;;;;3.13;0.40;;;;;;;23.85;100.00;100624.69;5039736;27;20307;-79
2022/07/31 09:25:17;;;;;;;2.35;0.35;;;;;;;23.97;100.00;100623.19;5041779;28;20025;-79
2022/07/31 09:27:43;;;;;;;;;;;;;;;23.01;100.00;100627.50;5044677;28;19917;-78
2022/07/31 09:30:08;;;;;;;;;;;;;;;23.14;100.00;100612.53;5043879;28;19921;-79
2022/07/31 09:32:34;;;;;;;;;;;;;;;23.32;100.00;100620.22;5044214;28;19920;-78
2022/07/31 09:35:06;;;;;;;;;;;;;;;23.48;100.00;100626.41;5044522;28;20003;-78
2022/07/31 09:37:31;;;;;;;;;;;;;;;23.48;100.00;100626.41;5050514;27;19924;-78
2022/07/31 09:39:56;;;;;;;;;;;;;;;23.42;100.00;100640.53;5077116;27;19928;-78
2022/07/31 09:42:22;;;;;;;;;;;;;;;23.69;100.00;100636.41;5044416;27;19960;-78
2022/07/31 09:44:48;;;;;;;;;;;;;;;23.46;100.00;100641.84;5043344;28;19968;-78
2022/07/31 09:47:27;;;;;;;;;;;;;;;23.36;100.00;100632.22;5043436;28;20487;-78
2022/07/31 09:49:57;;;;;;;;;;;;;;;23.36;100.00;100647.47;5039943;28;20038;-78
2022/07/31 09:52:23;;;;;;;;;;;;;;;23.22;100.00;100645.59;5033938;27;19915;-78
2022/07/31 09:54:58;;;;;;;;;;;;;;;23.43;100.00;100643.03;5040825;28;19931;-78
2022/07/31 09:57:23;;;;;;;;;;;;;;;23.14;100.00;100639.31;5043107;28;20019;-79
2022/07/31 09:59:49;;;;;;;;;;;;;;;23.08;100.00;100639.19;5042762;28;20501;-79
2022/07/31 10:02:17;;;;;;;3.13;0.50;;;;;;;23.64;100.00;100636.97;5042624;28;20390;-79
2022/07/31 10:04:45;;;;;;;2.92;0.50;;;;;;;23.51;100.00;100634.09;5041876;28;20333;-78
2022/07/31 10:07:12;;;;;;;3.40;0.47;;;;;;;23.75;100.00;100644.53;5059753;27;20044;-79
2022/07/31 10:09:39;;;;;;;5.18;0.73;;;;;;;23.38;100.00;100649.97;5069973;27;20025;-79
2022/07/31 10:12:06;;;;;;;3.45;0.40;;;;;;;23.09;100.00;100651.56;5041702;28;20538;-79
2022/07/31 10:14:39;;;;;;;5.40;0.70;;;;;;;23.86;100.00;100643.28;5043458;28;20033;-79
2022/07/31 10:17:05;;;;;;;4.45;0.90;;;;;;;24.29;100.00;100632.69;5042914;28;20293;-79
2022/07/31 10:19:35;;;;;;;2.47;0.47;;;;;;;23.97;100.00;100643.81;5043342;28;20134;-79
2022/07/31 10:22:03;;;;;;;3.63;0.70;;;;;;;23.78;100.00;100642.56;5061272;27;20026;-79
2022/07/31 10:24:31;;;;;;;1.48;0.30;;;;;;;24.04;100.00;100640.22;5042765;28;20033;-79
2022/07/31 10:26:58;;;;;;;3.80;0.40;;;;;;;24.26;100.00;100635.75;5042982;28;20035;-79
2022/07/31 10:29:25;;;;;;;3.60;0.38;;;;;;;23.63;100.00;100647.88;5042572;28;20635;-79
2022/07/31 10:31:51;;;;;;;0.63;0.30;;;;;;;23.53;100.00;100640.94;5023134;28;20037;-79
2022/07/31 10:34:17;;;;;;;1.65;0.32;;;;;;;23.96;100.00;100634.97;5041335;28;20072;-79
2022/07/31 10:36:47;;;;;;;0.57;0.20;;;;;;;24.35;100.00;100629.25;5057491;27;20027;-80
2022/07/31 10:39:30;;;;;;;2.30;0.30;;;;;;;24.83;100.00;100631.41;5090288;27;20037;-80
2022/07/31 10:41:57;;;;;;;1.25;0.40;;;;;;;24.50;100.00;100641.78;5070610;27;20434;-79
2022/07/31 10:44:32;;;;;;;1.88;0.50;;;;;;;24.69;100.00;100638.50;5042418;28;20067;-79
2022/07/31 10:46:58;;;;;;;1.55;0.40;;;;;;;24.56;100.00;100641.06;5042593;28;20044;-79
2022/07/31 10:49:42;;;;;;;0.93;0.35;;;;;;;24.71;100.00;100643.69;5042923;28;20037;-79
2022/07/31 10:52:08;;;;;;;7.00;0.40;;;;;;;24.64;100.00;100645.47;5066555;27;20084;-79
2022/07/31 10:54:44;;;;;;;2.28;0.45;;;;;;;25.02;100.00;100639.84;5082540;27;20050;-79
2022/07/31 10:57:36;;;;;;;1.05;0.30;;;;;;;25.07;100.00;100645.47;5150040;27;20034;-79
2022/07/31 11:00:13;;;;;;;0.63;0.40;;;;;;;24.54;100.00;100643.91;5028084;28;20049;-79
2022/07/31 11:02:38;;;;;;;2.13;0.80;;;;;;;24.22;100.00;100649.72;5089735;27;20037;-79
2022/07/31 11:05:08;;;;;;;1.85;0.70;;;;;;;24.80;100.00;100645.22;5046156;28;20028;-79
2022/07/31 11:07:34;;;;;;;2.22;0.63;;;;;;;25.01;100.00;100646.25;5044381;28;20435;-79
2022/07/31 11:10:08;;;;;;;3.55;0.82;;;;;;;25.15;100.00;100653.38;5046148;28;20544;-79
2022/07/31 11:12:33;;;;;;;3.50;0.50;;;;;;;24.82;100.00;100662.00;5044371;28;20037;-80
2022/07/31 11:14:59;;;;;;;4.47;1.00;;;;;;;24.71;100.00;100652.56;5046058;28;20025;-79
2022/07/31 11:17:38;;;;;;;2.28;0.70;;;;;;;24.51;100.00;100651.53;5044635;28;20047;-79
2022/07/31 11:20:05;;;;;;;5.55;1.40;;;;;;;25.11;100.00;100657.50;5043424;28;20075;-80